Record high temperature 44.9°C Record low temperature -0.3°C Record high gust 85.1 km/h Record high average 77.7 km/h Record daily rain 109.1 mm Record low windchill -4.5°C Record high barometer 1043.6 hPa Record low barometer 978.0 hPa
Daily high pressure 1025.2 mb Daily low pressure 1021.3 mb Daily low windchill 11.9°C Daily high heat index 21.7°C Daily high gust speed 31.6 kmh NNE Daily high average speed 17.9 kmh E
Estación de MeteoMurcia.com -------- Murcia-Puente Tocinos
Ultima grabación a: 20:30 Data: 30 March 2017, time of next update: 20:40
Tiempo actualClear Temperatura actual17.2°C (63.0°F) (Indice de Calor17.2°C ), Temperatura aparente 15.7°C
Temperatura máxima (desde medianoche)21.7°C at: 15:23 Temperatura mínima (desde medianoche)11.9°C at: 04:56
Velocidad media del viento (diez minutos)9.8 kmh (5.3 kts) Dirección del viento (diez minutos)NE (45°)
Indice de Calor17.2°C ráfagas maxima (última hora)23.3 kmh (12.6 kts) at: 19:40
ráfagas maxima (desde medianoche)31.6 kmh (17.1 kts) at: 14:31 Maximo media de un minuto (desde medianoche)17.9 kmh (9.7 kts) at: 18:26
Lluvia (última hora)0.0 mm Lluvia (desde medianoche)0.0 mm (0.00 in.)---
Lluvia Este mes 55.9 mm (2.20 in.) Lluvia Hasta la fecha este año118.7 mm (4.67 in.)
Lluvia máxima por minuto (última hora)0.0 mm/min Lluvia maxima por hora (últimas 6 horas)0.0 mm/hora
Lluvia de ayer 0.0 mm Punto de rocío 9.6°C (Wet Bulb :13.2°C )
Humedad 61 %, Humidex 18.3°C Barómetro corregido a msl1022.0 mb
cambio de presión+0.3 mb (última hora) Tendencia (últimas 1 hora)ESTACIONARIO
cambio de presión (últimas 12 horas)-1.9 mb cambio de presión (últimas 6 horas)-0.5 mb
Current Temp. Interna 26.1°C
Current Hum. Interna 40%


Última imagen cámara web


Weather report/warning/Metars

Alicante / El Altet, Spain (LEAL) 38-17N 000-33W 31M
Mar 30, 2017 - 02:00 PM EDT / 2017.03.30 1800 UTC
Wind: from the ENE (060 degrees) at 7 MPH (6 KT):0
Visibility: greater than 7 mile(s):0
Temperature: 60 F (16 C)
Dew Point: 48 F (9 C)
Relative Humidity: 63%
Pressure (altimeter): 30.24 in. Hg (1024 hPa)
ob: LEAL 301800Z 06006KT CAVOK 16/09 Q1024 NOSIG
cycle: 18
Murcia / San Javier, Spain (LELC) 37-47N 000-48W 3M
Mar 30, 2017 - 02:00 PM EDT / 2017.03.30 1800 UTC
Wind: from the ENE (060 degrees) at 8 MPH (7 KT) (direction variable):0
Visibility: greater than 7 mile(s):0
Temperature: 60 F (16 C)
Dew Point: 53 F (12 C)
Relative Humidity: 77%
Pressure (altimeter): 30.24 in. Hg (1024 hPa)
ob: LELC 301800Z 06007KT 360V080 CAVOK 16/12 Q1024 NOSIG
cycle: 18
Murcia / Alcantarilla, Spain (LERI) 37-57N 001-14W 75M
Mar 30, 2017 - 02:00 PM EDT / 2017.03.30 1800 UTC
Wind: from the SE (130 degrees) at 7 MPH (6 KT):0
Visibility: greater than 7 mile(s):0
Temperature: 62 F (17 C)
Dew Point: 42 F (6 C)
Relative Humidity: 48%
Pressure (altimeter): 30.24 in. Hg (1024 hPa)
ob: LERI 301800Z 13006KT CAVOK 17/06 Q1024 NOSIG
cycle: 18
Gerona / Costa Brava, Spain (LEGE) 41-54N 002-46E 129M
Mar 30, 2017 - 02:00 PM EDT / 2017.03.30 1800 UTC
Wind: from the S (180 degrees) at 12 MPH (10 KT):0
Visibility: greater than 7 mile(s):0
Temperature: 60 F (16 C)
Dew Point: 39 F (4 C)
Relative Humidity: 44%
Pressure (altimeter): 30.21 in. Hg (1023 hPa)
ob: LEGE 301800Z 18010KT CAVOK 16/04 Q1023
cycle: 18
Madri-Colmenar, Spain (LECV) 40-39N 003-44W
Mar 30, 2017 - 02:00 PM EDT / 2017.03.30 1800 UTC
Wind: from the WSW (240 degrees) at 5 MPH (4 KT):0
Visibility: greater than 7 mile(s):0
Sky conditions: mostly clear
Temperature: 60 F (16 C)
Dew Point: 41 F (5 C)
Relative Humidity: 47%
Pressure (altimeter): 30.18 in. Hg (1022 hPa)
ob: LECV 301800Z 24004KT 9999 FEW050 16/05 Q1022
cycle: 18
Asturias / Aviles, Spain (LEAS) 43-33N 006-02W 130M
Mar 30, 2017 - 02:00 PM EDT / 2017.03.30 1800 UTC
Wind: Variable at 1 MPH (1 KT):0
Visibility: greater than 7 mile(s):0
Sky conditions: mostly clear
Temperature: 66 F (19 C)
Dew Point: 57 F (14 C)
Relative Humidity: 72%
Pressure (altimeter): 29.91 in. Hg (1013 hPa)
ob: LEAS 301800Z VRB01KT 9999 FEW060 19/14 Q1013 NOSIG
cycle: 18
Almeria / Aeropuerto, Spain (LEAM) 36-51N 002-23W 21M
Mar 30, 2017 - 02:00 PM EDT / 2017.03.30 1800 UTC
Wind: from the E (080 degrees) at 6 MPH (5 KT) (direction variable):0
Visibility: greater than 7 mile(s):0
Temperature: 66 F (19 C)
Dew Point: 35 F (2 C)
Relative Humidity: 32%
Pressure (altimeter): 30.21 in. Hg (1023 hPa)
ob: LEAM 301800Z 08005KT 050V120 CAVOK 19/02 Q1023
cycle: 18
Pamplona / Noain, Spain (LEPP) 42-46N 001-38W 453M
Mar 30, 2017 - 02:00 PM EDT / 2017.03.30 1800 UTC
Wind: from the E (080 degrees) at 5 MPH (4 KT) (direction variable):0
Visibility: greater than 7 mile(s):0
Temperature: 64 F (18 C)
Dew Point: 39 F (4 C)
Relative Humidity: 39%
Pressure (altimeter): 30.12 in. Hg (1020 hPa)
ob: LEPP 301800Z 08004KT 030V110 CAVOK 18/04 Q1020
cycle: 18
Badajoz / Talavera La Real, Spain (LEBZ) 38-53N 006-49W 192M
Mar 30, 2017 - 02:00 PM EDT / 2017.03.30 1800 UTC
Wind: from the WSW (250 degrees) at 9 MPH (8 KT) (direction variable):0
Visibility: greater than 7 mile(s):0
Temperature: 71 F (22 C)
Dew Point: 50 F (10 C)
Relative Humidity: 46%
Pressure (altimeter): 30.15 in. Hg (1021 hPa)
ob: LEBZ 301800Z 25008KT 220V280 CAVOK 22/10 Q1021
cycle: 18
Albacete / Los Llanos, Spain (LEAB) 38-57N 001-51W 704M
Mar 30, 2017 - 02:00 PM EDT / 2017.03.30 1800 UTC
Wind: from the S (170 degrees) at 10 MPH (9 KT) (direction variable):0
Visibility: greater than 7 mile(s):0
Temperature: 60 F (16 C)
Dew Point: 37 F (3 C)
Relative Humidity: 41%
Pressure (altimeter): 30.21 in. Hg (1023 hPa)
ob: LEAB 301800Z 17009KT 130V200 CAVOK 16/03 Q1023 NOSIG
cycle: 18



La informacion se graba a intervalos de 2 minutos, pero hay info grabada cada minuto. Optimizado para 800*600 y Color verdadero. Use el boton de

Use the RECARGA en su navegador para recojer la ulima info.

Clicar aquí para regarga diaria de medias/extremas del mes














Created by "Weather Display" software version 10.37S at this start time/date 0:43:01 30/03/2017

La estación de MeteoMurcia.com, publica sus datos en los siguientes proyectos:

Meteoclimatic www.awekas.at

W3Counter
Web Analytics